Hernderson, Zimbabwe

4:13 PM CAT on December 06, 2016 (GMT +0200)
Borrowdale Brooke | | Change Station

Elev 4757 ft 17.71 °S, 31.14 °E | Updated 15 seconds ago

Mostly Cloudy
Mostly Cloudy
78.8 °F
Feels Like 79 °F
N
1.6
Wind Variable Wind from East
Gusts 1.6 mph

Today
High -- | Low -- °F
--% Chance of Precip.
Yesterday
High -- | Low -- °F
Precip. -- in
Pressure 30.12 in
Visibility 6.2 miles
Clouds Scattered Clouds 3000 ft
Heat Index 79 °F
Dew Point 53 °F
Humidity 41%
Rainfall 0.00 in
Snow Depth Not available.
5:13 AM 6:21 PM
Waxing Crescent, 42% visible
METAR FVHA 061400Z 14009KT 120V180 9999 SCT030 26/12 Q1020 NOSIG
Pressure 30.12 in
Visibility 6.2 miles
Clouds Scattered Clouds 3000 ft
Heat Index 79 °F
Dew Point 53 °F
Humidity 41%
Rainfall 0.00 in
Snow Depth Not available.
5:13 AM 6:21 PM
Waxing Crescent, 42% visible
METAR FVHA 061400Z 14009KT 120V180 9999 SCT030 26/12 Q1020 NOSIG

10-Day Weather Forecast

No radar image for this location.
×

Almanac

Astronomy

Dec. 06, 2016 Rise Set
Actual Time
Civil Twilight
Nautical Twilight
Astronomical Twilight
Moon
Length of Visible Light
Length of Day
Tomorrow will be .
, % of the Moon is Illuminated

Today's Extremes

Country Highs Country Lows

Community

WunderPhotos

Upload Photos

1,955,949 photos uploaded!

WunderBlog® & News

Nearby

Air Quality

  Air Quality AQ Index Pollutant
Not available.

Snow Depth

Station Depth Elevation

Earthquake Activity

City Distance Mag. Time & Date
Minimum magnitude displayed is 2.5.

Coastal Water Temperatures

Place Temperature

Stations

Nearby Weather Stations

Station Location Temp. Windchill Dew Point Humidity Wind Precip. Elev Updated Type